ADDS METAR Data INFO
IDs: Format: Raw Decoded Include TAF

Data at: 0336 UTC 28 Jun 2017

METAR for:K6B9 (Skaneateles Arpt, NY, US)
Text:K6B9 280315Z AUTO 25005KT 10SM FEW032 OVC085 14/12 A3003 RMK AO2
Temperature: 14.0°C ( 57°F)
Dewpoint: 12.0°C ( 54°F) [RH = 88%]
Pressure (altimeter):30.03 inches Hg (1017.0 mb)
Winds:from the WSW (250 degrees) at 6 MPH (5 knots; 2.6 m/s)
Visibility:10 or more sm (16+ km)
Ceiling:8500 feet AGL
Clouds: few clouds at 3200 feet AGL, overcast cloud deck at 8500 feet AGL
QC Flag:automated observation with no human augmentation
Text:K6B9 280255Z AUTO 25005KT 10SM FEW032 SCT070 BKN080 14/12 A3002 RMK AO2
Temperature: 14.0°C ( 57°F)
Dewpoint: 12.0°C ( 54°F) [RH = 88%]
Pressure (altimeter):30.02 inches Hg (1016.7 mb)
Winds:from the WSW (250 degrees) at 6 MPH (5 knots; 2.6 m/s)
Visibility:10 or more sm (16+ km)
Ceiling:8000 feet AGL
Clouds: few clouds at 3200 feet AGL, scattered clouds at 7000 feet AGL, broken clouds at 8000 feet AGL
QC Flag:automated observation with no human augmentation
Text:K6B9 280235Z AUTO 25004KT 10SM FEW035 SCT070 SCT085 14/12 A3002 RMK AO2
Temperature: 14.0°C ( 57°F)
Dewpoint: 12.0°C ( 54°F) [RH = 88%]
Pressure (altimeter):30.02 inches Hg (1016.7 mb)
Winds:from the WSW (250 degrees) at 5 MPH (4 knots; 2.1 m/s)
Visibility:10 or more sm (16+ km)
Ceiling:at least 12,000 feet AGL
Clouds: few clouds at 3500 feet AGL, scattered clouds at 7000 feet AGL, scattered clouds at 8500 feet AGL
QC Flag:automated observation with no human augmentation
Text:K6B9 280215Z AUTO 23004KT 10SM SCT034 BKN040 SCT046 14/12 A3001 RMK AO2
Temperature: 14.0°C ( 57°F)
Dewpoint: 12.0°C ( 54°F) [RH = 88%]
Pressure (altimeter):30.01 inches Hg (1016.3 mb)
Winds:from the SW (230 degrees) at 5 MPH (4 knots; 2.1 m/s)
Visibility:10 or more sm (16+ km)
Ceiling:4000 feet AGL
Clouds: scattered clouds at 3400 feet AGL, broken clouds at 4000 feet AGL, scattered clouds at 4600 feet AGL
QC Flag:automated observation with no human augmentation
Text:K6B9 280155Z AUTO 25006G11KT 10SM FEW013 SCT035 BKN043 14/12 A3001 RMK AO2
Temperature: 14.0°C ( 57°F)
Dewpoint: 12.0°C ( 54°F) [RH = 88%]
Pressure (altimeter):30.01 inches Hg (1016.3 mb)
Winds:from the WSW (250 degrees) at 7 MPH (6 knots; 3.1 m/s) gusting to 13 MPH (11 knots; 5.7 m/s)
Visibility:10 or more sm (16+ km)
Ceiling:4300 feet AGL
Clouds: few clouds at 1300 feet AGL, scattered clouds at 3500 feet AGL, broken clouds at 4300 feet AGL
QC Flag:automated observation with no human augmentation
Text:K6B9 280135Z AUTO 25007KT 230V290 10SM FEW029 BKN038 OVC049 15/12 A3000 RMK AO2
Temperature: 15.0°C ( 59°F)
Dewpoint: 12.0°C ( 54°F) [RH = 82%]
Pressure (altimeter):30.00 inches Hg (1016.0 mb)
Winds:from the WSW (250 degrees) at 8 MPH (7 knots; 3.6 m/s)
Visibility:10 or more sm (16+ km)
Ceiling:3800 feet AGL
Clouds: few clouds at 2900 feet AGL, broken clouds at 3800 feet AGL, overcast cloud deck at 4900 feet AGL
QC Flag:automated observation with no human augmentation
Text:K6B9 280115Z AUTO VRB05G10KT 10SM SCT035 BKN043 OVC050 15/11 A2999 RMK AO2
Temperature: 15.0°C ( 59°F)
Dewpoint: 11.0°C ( 52°F) [RH = 77%]
Pressure (altimeter):29.99 inches Hg (1015.7 mb)
Winds:variable direction winds at 6 MPH (5 knots; 2.6 m/s) gusting to 12 MPH (10 knots; 5.1 m/s)
Visibility:10 or more sm (16+ km)
Ceiling:4300 feet AGL
Clouds: scattered clouds at 3500 feet AGL, broken clouds at 4300 feet AGL, overcast cloud deck at 5000 feet AGL
QC Flag:automated observation with no human augmentation
Text:K6B9 280055Z AUTO 27007KT 250V310 10SM SCT031 BKN037 OVC049 15/11 A2999 RMK AO2
Temperature: 15.0°C ( 59°F)
Dewpoint: 11.0°C ( 52°F) [RH = 77%]
Pressure (altimeter):29.99 inches Hg (1015.7 mb)
Winds:from the W (270 degrees) at 8 MPH (7 knots; 3.6 m/s)
Visibility:10 or more sm (16+ km)
Ceiling:3700 feet AGL
Clouds: scattered clouds at 3100 feet AGL, broken clouds at 3700 feet AGL, overcast cloud deck at 4900 feet AGL
QC Flag:automated observation with no human augmentation
Text:K6B9 280035Z AUTO 25005KT 10SM SCT031 BKN039 OVC080 15/12 A2998 RMK AO2
Temperature: 15.0°C ( 59°F)
Dewpoint: 12.0°C ( 54°F) [RH = 82%]
Pressure (altimeter):29.98 inches Hg (1015.3 mb)
Winds:from the WSW (250 degrees) at 6 MPH (5 knots; 2.6 m/s)
Visibility:10 or more sm (16+ km)
Ceiling:3900 feet AGL
Clouds: scattered clouds at 3100 feet AGL, broken clouds at 3900 feet AGL, overcast cloud deck at 8000 feet AGL
QC Flag:automated observation with no human augmentation
Text:K6B9 280015Z AUTO VRB03KT 10SM FEW033 SCT040 BKN075 15/13 A2998 RMK AO2
Temperature: 15.0°C ( 59°F)
Dewpoint: 13.0°C ( 55°F) [RH = 88%]
Pressure (altimeter):29.98 inches Hg (1015.3 mb)
Winds:variable direction winds at 3 MPH (3 knots; 1.5 m/s)
Visibility:10 or more sm (16+ km)
Ceiling:7500 feet AGL
Clouds: few clouds at 3300 feet AGL, scattered clouds at 4000 feet AGL, broken clouds at 7500 feet AGL
QC Flag:automated observation with no human augmentation
Text:K6B9 272355Z AUTO 00000KT 10SM FEW020 BKN034 OVC060 15/13 A2998 RMK AO2 P0001
Temperature: 15.0°C ( 59°F)
Dewpoint: 13.0°C ( 55°F) [RH = 88%]
Pressure (altimeter):29.98 inches Hg (1015.3 mb)
Winds:calm
Visibility:10 or more sm (16+ km)
Ceiling:3400 feet AGL
Clouds: few clouds at 2000 feet AGL, broken clouds at 3400 feet AGL, overcast cloud deck at 6000 feet AGL
QC Flag:automated observation with no human augmentation
Text:K6B9 272335Z AUTO VRB03KT 10SM SCT020 BKN025 OVC042 15/13 A2997 RMK AO2
Temperature: 15.0°C ( 59°F)
Dewpoint: 13.0°C ( 55°F) [RH = 88%]
Pressure (altimeter):29.97 inches Hg (1015.0 mb)
Winds:variable direction winds at 3 MPH (3 knots; 1.5 m/s)
Visibility:10 or more sm (16+ km)
Ceiling:2500 feet AGL
Clouds: scattered clouds at 2000 feet AGL, broken clouds at 2500 feet AGL, overcast cloud deck at 4200 feet AGL
QC Flag:automated observation with no human augmentation
Text:K6B9 272315Z AUTO 00000KT 10SM -DZ FEW033 BKN039 OVC090 15/13 A2996 RMK AO2
Temperature: 15.0°C ( 59°F)
Dewpoint: 13.0°C ( 55°F) [RH = 88%]
Pressure (altimeter):29.96 inches Hg (1014.6 mb)
Winds:calm
Visibility:10 or more sm (16+ km)
Ceiling:3900 feet AGL
Clouds: few clouds at 3300 feet AGL, broken clouds at 3900 feet AGL, overcast cloud deck at 9000 feet AGL
Weather:-DZ (light drizzle)
QC Flag:automated observation with no human augmentation
Text:K6B9 272255Z AUTO 00000KT 10SM BKN075 BKN085 16/12 A2995 RMK AO2
Temperature: 16.0°C ( 61°F)
Dewpoint: 12.0°C ( 54°F) [RH = 77%]
Pressure (altimeter):29.95 inches Hg (1014.3 mb)
Winds:calm
Visibility:10 or more sm (16+ km)
Ceiling:7500 feet AGL
Clouds: broken clouds at 7500 feet AGL, broken clouds at 8500 feet AGL
QC Flag:automated observation with no human augmentation
Text:K6B9 272235Z AUTO 00000KT 10SM SCT065 BKN080 16/12 A2996 RMK AO2
Temperature: 16.0°C ( 61°F)
Dewpoint: 12.0°C ( 54°F) [RH = 77%]
Pressure (altimeter):29.96 inches Hg (1014.6 mb)
Winds:calm
Visibility:10 or more sm (16+ km)
Ceiling:8000 feet AGL
Clouds: scattered clouds at 6500 feet AGL, broken clouds at 8000 feet AGL
QC Flag:automated observation with no human augmentation
Text:K6B9 272215Z AUTO 00000KT 10SM FEW033 SCT050 BKN060 17/11 A2996 RMK AO2
Temperature: 17.0°C ( 63°F)
Dewpoint: 11.0°C ( 52°F) [RH = 68%]
Pressure (altimeter):29.96 inches Hg (1014.6 mb)
Winds:calm
Visibility:10 or more sm (16+ km)
Ceiling:6000 feet AGL
Clouds: few clouds at 3300 feet AGL, scattered clouds at 5000 feet AGL, broken clouds at 6000 feet AGL
QC Flag:automated observation with no human augmentation
Text:K6B9 272155Z AUTO 00000KT 10SM FEW033 SCT040 BKN060 16/12 A2997 RMK AO2
Temperature: 16.0°C ( 61°F)
Dewpoint: 12.0°C ( 54°F) [RH = 77%]
Pressure (altimeter):29.97 inches Hg (1015.0 mb)
Winds:calm
Visibility:10 or more sm (16+ km)
Ceiling:6000 feet AGL
Clouds: few clouds at 3300 feet AGL, scattered clouds at 4000 feet AGL, broken clouds at 6000 feet AGL
QC Flag:automated observation with no human augmentation
Text:K6B9 272135Z AUTO 00000KT 10SM SCT065 BKN075 16/11 A2996 RMK AO2
Temperature: 16.0°C ( 61°F)
Dewpoint: 11.0°C ( 52°F) [RH = 72%]
Pressure (altimeter):29.96 inches Hg (1014.6 mb)
Winds:calm
Visibility:10 or more sm (16+ km)
Ceiling:7500 feet AGL
Clouds: scattered clouds at 6500 feet AGL, broken clouds at 7500 feet AGL
QC Flag:automated observation with no human augmentation
Text:K6B9 272115Z AUTO VRB04KT 10SM FEW065 FEW075 16/11 A2996 RMK AO2
Temperature: 16.0°C ( 61°F)
Dewpoint: 11.0°C ( 52°F) [RH = 72%]
Pressure (altimeter):29.96 inches Hg (1014.6 mb)
Winds:variable direction winds at 5 MPH (4 knots; 2.1 m/s)
Visibility:10 or more sm (16+ km)
Ceiling:at least 12,000 feet AGL
Clouds: few clouds at 6500 feet AGL, few clouds at 7500 feet AGL
QC Flag:automated observation with no human augmentation
Text:K6B9 272055Z AUTO 00000KT 10SM BKN075 15/11 A2996 RMK AO2 P0009
Temperature: 15.0°C ( 59°F)
Dewpoint: 11.0°C ( 52°F) [RH = 77%]
Pressure (altimeter):29.96 inches Hg (1014.6 mb)
Winds:calm
Visibility:10 or more sm (16+ km)
Ceiling:7500 feet AGL
Clouds: broken clouds at 7500 feet AGL
QC Flag:automated observation with no human augmentation
Text:K6B9 272035Z AUTO 00000KT 10SM FEW024 FEW060 BKN075 14/12 A2997 RMK AO2
Temperature: 14.0°C ( 57°F)
Dewpoint: 12.0°C ( 54°F) [RH = 88%]
Pressure (altimeter):29.97 inches Hg (1015.0 mb)
Winds:calm
Visibility:10 or more sm (16+ km)
Ceiling:7500 feet AGL
Clouds: few clouds at 2400 feet AGL, few clouds at 6000 feet AGL, broken clouds at 7500 feet AGL
QC Flag:automated observation with no human augmentation
Text:K6B9 272015Z AUTO 27003G14KT 2SM -RA SCT026 SCT043 BKN060 14/11 A2997 RMK AO2
Temperature: 14.0°C ( 57°F)
Dewpoint: 11.0°C ( 52°F) [RH = 82%]
Pressure (altimeter):29.97 inches Hg (1015.0 mb)
Winds:from the W (270 degrees) at 3 MPH (3 knots; 1.5 m/s) gusting to 16 MPH (14 knots; 7.2 m/s)
Visibility: 2.00 sm ( 3.22 km)
Ceiling:6000 feet AGL
Clouds: scattered clouds at 2600 feet AGL, scattered clouds at 4300 feet AGL, broken clouds at 6000 feet AGL
Weather:-RA (light rain)
QC Flag:automated observation with no human augmentation
Text:K6B9 271955Z AUTO VRB04KT 10SM SCT070 16/09 A2995 RMK AO2
Temperature: 16.0°C ( 61°F)
Dewpoint: 9.0°C ( 48°F) [RH = 63%]
Pressure (altimeter):29.95 inches Hg (1014.3 mb)
Winds:variable direction winds at 5 MPH (4 knots; 2.1 m/s)
Visibility:10 or more sm (16+ km)
Ceiling:at least 12,000 feet AGL
Clouds: scattered clouds at 7000 feet AGL
QC Flag:automated observation with no human augmentation
Text:K6B9 271935Z AUTO 23007KT 10SM CLR 16/10 A2996 RMK AO2
Temperature: 16.0°C ( 61°F)
Dewpoint: 10.0°C ( 50°F) [RH = 68%]
Pressure (altimeter):29.96 inches Hg (1014.6 mb)
Winds:from the SW (230 degrees) at 8 MPH (7 knots; 3.6 m/s)
Visibility:10 or more sm (16+ km)
Ceiling:at least 12,000 feet AGL
Clouds:sky clear below 12,000 feet AGL
QC Flag:automated observation with no human augmentation
Text:K6B9 271915Z AUTO 26007KT 220V290 9SM FEW048 FEW060 SCT075 16/11 A2996 RMK AO2
Temperature: 16.0°C ( 61°F)
Dewpoint: 11.0°C ( 52°F) [RH = 72%]
Pressure (altimeter):29.96 inches Hg (1014.6 mb)
Winds:from the W (260 degrees) at 8 MPH (7 knots; 3.6 m/s)
Visibility: 9 sm ( 14 km)
Ceiling:at least 12,000 feet AGL
Clouds: few clouds at 4800 feet AGL, few clouds at 6000 feet AGL, scattered clouds at 7500 feet AGL
QC Flag:automated observation with no human augmentation
Text:K6B9 271855Z AUTO 24005G12KT 10SM FEW060 SCT075 SCT090 16/09 A2996 RMK AO2
Temperature: 16.0°C ( 61°F)
Dewpoint: 9.0°C ( 48°F) [RH = 63%]
Pressure (altimeter):29.96 inches Hg (1014.6 mb)
Winds:from the WSW (240 degrees) at 6 MPH (5 knots; 2.6 m/s) gusting to 14 MPH (12 knots; 6.2 m/s)
Visibility:10 or more sm (16+ km)
Ceiling:at least 12,000 feet AGL
Clouds: few clouds at 6000 feet AGL, scattered clouds at 7500 feet AGL, scattered clouds at 9000 feet AGL
QC Flag:automated observation with no human augmentation
Text:K6B9 271835Z AUTO 23007G13KT 10SM CLR 16/10 A2996 RMK AO2
Temperature: 16.0°C ( 61°F)
Dewpoint: 10.0°C ( 50°F) [RH = 68%]
Pressure (altimeter):29.96 inches Hg (1014.6 mb)
Winds:from the SW (230 degrees) at 8 MPH (7 knots; 3.6 m/s) gusting to 15 MPH (13 knots; 6.7 m/s)
Visibility:10 or more sm (16+ km)
Ceiling:at least 12,000 feet AGL
Clouds:sky clear below 12,000 feet AGL
QC Flag:automated observation with no human augmentation
Text:K6B9 271815Z AUTO 22006KT 10SM FEW090 15/11 A2996 RMK AO2
Temperature: 15.0°C ( 59°F)
Dewpoint: 11.0°C ( 52°F) [RH = 77%]
Pressure (altimeter):29.96 inches Hg (1014.6 mb)
Winds:from the SW (220 degrees) at 7 MPH (6 knots; 3.1 m/s)
Visibility:10 or more sm (16+ km)
Ceiling:at least 12,000 feet AGL
Clouds: few clouds at 9000 feet AGL
QC Flag:automated observation with no human augmentation
Text:K6B9 271755Z AUTO 22006KT 10SM FEW090 15/12 A2997 RMK AO2 P0004
Temperature: 15.0°C ( 59°F)
Dewpoint: 12.0°C ( 54°F) [RH = 82%]
Pressure (altimeter):29.97 inches Hg (1015.0 mb)
Winds:from the SW (220 degrees) at 7 MPH (6 knots; 3.1 m/s)
Visibility:10 or more sm (16+ km)
Ceiling:at least 12,000 feet AGL
Clouds: few clouds at 9000 feet AGL
QC Flag:automated observation with no human augmentation
Text:K6B9 271735Z AUTO 21005KT 9SM FEW029 FEW047 BKN060 12/11 A2998 RMK AO2
Temperature: 12.0°C ( 54°F)
Dewpoint: 11.0°C ( 52°F) [RH = 94%]
Pressure (altimeter):29.98 inches Hg (1015.3 mb)
Winds:from the SSW (210 degrees) at 6 MPH (5 knots; 2.6 m/s)
Visibility: 9 sm ( 14 km)
Ceiling:6000 feet AGL
Clouds: few clouds at 2900 feet AGL, few clouds at 4700 feet AGL, broken clouds at 6000 feet AGL
QC Flag:automated observation with no human augmentation
Text:K6B9 271715Z AUTO 23004KT 9SM -RA FEW004 SCT034 OVC060 12/10 A2997 RMK AO2
Temperature: 12.0°C ( 54°F)
Dewpoint: 10.0°C ( 50°F) [RH = 88%]
Pressure (altimeter):29.97 inches Hg (1015.0 mb)
Winds:from the SW (230 degrees) at 5 MPH (4 knots; 2.1 m/s)
Visibility: 9 sm ( 14 km)
Ceiling:6000 feet AGL
Clouds: few clouds at 400 feet AGL, scattered clouds at 3400 feet AGL, overcast cloud deck at 6000 feet AGL
Weather:-RA (light rain)
QC Flag:automated observation with no human augmentation
Text:K6B9 271655Z AUTO 00000G15KT 1 1/2SM -RA SCT004 SCT027 OVC033 12/10 A2996 RMK AO2 P0020 VIS 3/4V4
Temperature: 12.0°C ( 54°F)
Dewpoint: 10.0°C ( 50°F) [RH = 88%]
Pressure (altimeter):29.96 inches Hg (1014.6 mb)
Winds:calm
Visibility: 1.50 sm ( 2.41 km)
Ceiling:3300 feet AGL
Clouds: scattered clouds at 400 feet AGL, scattered clouds at 2700 feet AGL, overcast cloud deck at 3300 feet AGL
Weather:-RA (light rain)
QC Flag:automated observation with no human augmentation
Text:K6B9 271635Z AUTO 28003KT 8SM FEW032 SCT037 BKN055 16/11 A2994 RMK AO2
Temperature: 16.0°C ( 61°F)
Dewpoint: 11.0°C ( 52°F) [RH = 72%]
Pressure (altimeter):29.94 inches Hg (1014.0 mb)
Winds:from the W (280 degrees) at 3 MPH (3 knots; 1.5 m/s)
Visibility: 8 sm ( 13 km)
Ceiling:5500 feet AGL
Clouds: few clouds at 3200 feet AGL, scattered clouds at 3700 feet AGL, broken clouds at 5500 feet AGL
QC Flag:automated observation with no human augmentation
Text:K6B9 271615Z AUTO VRB06KT 10SM FEW036 SCT043 SCT060 18/11 A2994 RMK AO2
Temperature: 18.0°C ( 64°F)
Dewpoint: 11.0°C ( 52°F) [RH = 64%]
Pressure (altimeter):29.94 inches Hg (1014.0 mb)
Winds:variable direction winds at 7 MPH (6 knots; 3.1 m/s)
Visibility:10 or more sm (16+ km)
Ceiling:at least 12,000 feet AGL
Clouds: few clouds at 3600 feet AGL, scattered clouds at 4300 feet AGL, scattered clouds at 6000 feet AGL
QC Flag:automated observation with no human augmentation
Text:K6B9 271555Z AUTO 23006KT 10SM FEW029 FEW035 SCT043 17/11 A2995 RMK AO2
Temperature: 17.0°C ( 63°F)
Dewpoint: 11.0°C ( 52°F) [RH = 68%]
Pressure (altimeter):29.95 inches Hg (1014.3 mb)
Winds:from the SW (230 degrees) at 7 MPH (6 knots; 3.1 m/s)
Visibility:10 or more sm (16+ km)
Ceiling:at least 12,000 feet AGL
Clouds: few clouds at 2900 feet AGL, few clouds at 3500 feet AGL, scattered clouds at 4300 feet AGL
QC Flag:automated observation with no human augmentation


Page loaded:  03:36 UTC  |   08:36 PM Pacific  |   09:36 PM Mountain  |   10:36 PM Central  |   11:36 PM Eastern

 

ADVISORIES

FORECASTS

FORECASTS

OBSERVATIONS

USER TOOLS

ABOUT US